sensor_id;sensor_type;location;lat;lon;timestamp;P1;durP1;ratioP1;P2;durP2;ratioP2
30036;SDS011;36325;51.512;-0.382;2023-03-31T00:01:13;20.55;;;3.70;;
30036;SDS011;36325;51.512;-0.382;2023-03-31T00:03:41;18.92;;;2.88;;
30036;SDS011;36325;51.512;-0.382;2023-03-31T00:06:10;16.70;;;2.88;;
30036;SDS011;36325;51.512;-0.382;2023-03-31T00:08:44;15.07;;;3.28;;
30036;SDS011;36325;51.512;-0.382;2023-03-31T00:11:12;19.10;;;3.55;;
30036;SDS011;36325;51.512;-0.382;2023-03-31T00:13:39;21.50;;;4.30;;
30036;SDS011;36325;51.512;-0.382;2023-03-31T00:16:08;21.20;;;3.80;;
30036;SDS011;36325;51.512;-0.382;2023-03-31T00:18:36;25.73;;;3.55;;
30036;SDS011;36325;51.512;-0.382;2023-03-31T00:21:07;29.92;;;4.53;;
30036;SDS011;36325;51.512;-0.382;2023-03-31T00:23:52;25.88;;;3.80;;
30036;SDS011;36325;51.512;-0.382;2023-03-31T00:26:20;20.70;;;3.95;;
30036;SDS011;36325;51.512;-0.382;2023-03-31T00:28:48;36.58;;;4.78;;
30036;SDS011;36325;51.512;-0.382;2023-03-31T00:31:17;23.67;;;3.30;;
30036;SDS011;36325;51.512;-0.382;2023-03-31T00:33:45;15.88;;;2.83;;
30036;SDS011;36325;51.512;-0.382;2023-03-31T00:36:13;18.52;;;2.40;;
30036;SDS011;36325;51.512;-0.382;2023-03-31T00:38:46;16.75;;;2.85;;
30036;SDS011;36325;51.512;-0.382;2023-03-31T00:41:14;15.10;;;2.67;;
30036;SDS011;36325;51.512;-0.382;2023-03-31T00:44:28;19.25;;;3.53;;
30036;SDS011;36325;51.512;-0.382;2023-03-31T00:49:34;13.98;;;2.45;;
30036;SDS011;36325;51.512;-0.382;2023-03-31T00:52:18;12.48;;;2.10;;
30036;SDS011;36325;51.512;-0.382;2023-03-31T00:54:53;18.08;;;2.63;;
30036;SDS011;36325;51.512;-0.382;2023-03-31T00:57:24;16.48;;;2.40;;
30036;SDS011;36325;51.512;-0.382;2023-03-31T00:59:58;18.58;;;3.38;;
30036;SDS011;36325;51.512;-0.382;2023-03-31T01:02:36;15.93;;;2.53;;
30036;SDS011;36325;51.512;-0.382;2023-03-31T01:05:07;21.70;;;2.60;;
30036;SDS011;36325;51.512;-0.382;2023-03-31T01:07:36;19.73;;;3.20;;
30036;SDS011;36325;51.512;-0.382;2023-03-31T01:10:08;14.15;;;2.38;;
30036;SDS011;36325;51.512;-0.382;2023-03-31T01:12:37;12.75;;;2.20;;
30036;SDS011;36325;51.512;-0.382;2023-03-31T01:15:10;20.77;;;3.05;;
30036;SDS011;36325;51.512;-0.382;2023-03-31T01:17:37;15.43;;;2.58;;
30036;SDS011;36325;51.512;-0.382;2023-03-31T01:20:09;21.30;;;3.17;;
30036;SDS011;36325;51.512;-0.382;2023-03-31T01:34:27;14.77;;;2.85;;
30036;SDS011;36325;51.512;-0.382;2023-03-31T01:37:29;10.77;;;1.92;;
30036;SDS011;36325;51.512;-0.382;2023-03-31T01:48:14;12.65;;;2.75;;
30036;SDS011;36325;51.512;-0.382;2023-03-31T01:56:21;10.90;;;1.75;;
30036;SDS011;36325;51.512;-0.382;2023-03-31T02:02:00;12.68;;;2.33;;
30036;SDS011;36325;51.512;-0.382;2023-03-31T02:04:33;9.73;;;2.47;;
30036;SDS011;36325;51.512;-0.382;2023-03-31T02:07:09;9.23;;;2.13;;
30036;SDS011;36325;51.512;-0.382;2023-03-31T02:09:41;15.02;;;2.58;;
30036;SDS011;36325;51.512;-0.382;2023-03-31T02:12:13;16.13;;;2.72;;
30036;SDS011;36325;51.512;-0.382;2023-03-31T02:14:42;11.73;;;2.72;;
30036;SDS011;36325;51.512;-0.382;2023-03-31T02:17:14;15.18;;;2.95;;
30036;SDS011;36325;51.512;-0.382;2023-03-31T02:19:45;25.38;;;2.80;;
30036;SDS011;36325;51.512;-0.382;2023-03-31T02:22:17;13.20;;;2.75;;
30036;SDS011;36325;51.512;-0.382;2023-03-31T02:24:46;23.00;;;3.65;;
30036;SDS011;36325;51.512;-0.382;2023-03-31T02:27:18;26.92;;;3.53;;
30036;SDS011;36325;51.512;-0.382;2023-03-31T02:29:52;19.13;;;3.10;;
30036;SDS011;36325;51.512;-0.382;2023-03-31T02:32:23;22.50;;;3.42;;
30036;SDS011;36325;51.512;-0.382;2023-03-31T02:35:00;19.38;;;3.75;;
30036;SDS011;36325;51.512;-0.382;2023-03-31T02:37:28;22.02;;;3.40;;
30036;SDS011;36325;51.512;-0.382;2023-03-31T02:39:56;21.08;;;3.42;;
30036;SDS011;36325;51.512;-0.382;2023-03-31T02:42:27;20.88;;;3.47;;
30036;SDS011;36325;51.512;-0.382;2023-03-31T02:44:59;12.02;;;2.70;;
30036;SDS011;36325;51.512;-0.382;2023-03-31T02:47:32;15.93;;;2.85;;
30036;SDS011;36325;51.512;-0.382;2023-03-31T02:50:00;14.10;;;2.17;;
30036;SDS011;36325;51.512;-0.382;2023-03-31T02:52:44;14.55;;;3.10;;
30036;SDS011;36325;51.512;-0.382;2023-03-31T02:55:46;19.42;;;3.15;;
30036;SDS011;36325;51.512;-0.382;2023-03-31T02:58:41;21.13;;;3.92;;
30036;SDS011;36325;51.512;-0.382;2023-03-31T03:01:38;19.25;;;2.80;;
30036;SDS011;36325;51.512;-0.382;2023-03-31T03:13:44;27.80;;;3.90;;
30036;SDS011;36325;51.512;-0.382;2023-03-31T03:16:29;30.20;;;5.97;;
30036;SDS011;36325;51.512;-0.382;2023-03-31T03:18:56;19.20;;;3.60;;
30036;SDS011;36325;51.512;-0.382;2023-03-31T03:21:28;19.42;;;4.05;;
30036;SDS011;36325;51.512;-0.382;2023-03-31T03:23:56;25.30;;;4.30;;
30036;SDS011;36325;51.512;-0.382;2023-03-31T03:26:25;31.50;;;3.90;;
30036;SDS011;36325;51.512;-0.382;2023-03-31T03:28:55;24.15;;;4.18;;
30036;SDS011;36325;51.512;-0.382;2023-03-31T03:31:23;31.48;;;5.35;;
30036;SDS011;36325;51.512;-0.382;2023-03-31T03:33:51;25.15;;;5.35;;
30036;SDS011;36325;51.512;-0.382;2023-03-31T03:36:19;38.90;;;5.93;;
30036;SDS011;36325;51.512;-0.382;2023-03-31T03:38:47;42.00;;;5.18;;
30036;SDS011;36325;51.512;-0.382;2023-03-31T03:41:14;46.47;;;6.15;;
30036;SDS011;36325;51.512;-0.382;2023-03-31T03:43:41;47.72;;;7.18;;
30036;SDS011;36325;51.512;-0.382;2023-03-31T03:46:09;31.70;;;5.18;;
30036;SDS011;36325;51.512;-0.382;2023-03-31T03:48:36;29.95;;;5.10;;
30036;SDS011;36325;51.512;-0.382;2023-03-31T03:51:03;28.77;;;3.88;;
30036;SDS011;36325;51.512;-0.382;2023-03-31T03:53:32;20.95;;;4.32;;
30036;SDS011;36325;51.512;-0.382;2023-03-31T03:55:59;32.72;;;5.43;;
30036;SDS011;36325;51.512;-0.382;2023-03-31T03:58:27;32.45;;;6.25;;
30036;SDS011;36325;51.512;-0.382;2023-03-31T04:00:54;35.22;;;5.15;;
30036;SDS011;36325;51.512;-0.382;2023-03-31T04:03:22;31.00;;;5.05;;
30036;SDS011;36325;51.512;-0.382;2023-03-31T04:05:50;31.77;;;5.57;;
30036;SDS011;36325;51.512;-0.382;2023-03-31T04:08:18;33.17;;;4.57;;
30036;SDS011;36325;51.512;-0.382;2023-03-31T04:10:46;40.78;;;6.85;;
30036;SDS011;36325;51.512;-0.382;2023-03-31T04:13:15;35.03;;;4.95;;
30036;SDS011;36325;51.512;-0.382;2023-03-31T04:15:42;33.47;;;6.57;;
30036;SDS011;36325;51.512;-0.382;2023-03-31T04:18:10;42.67;;;5.38;;
30036;SDS011;36325;51.512;-0.382;2023-03-31T04:20:49;30.13;;;5.85;;
30036;SDS011;36325;51.512;-0.382;2023-03-31T04:23:33;39.10;;;5.85;;
30036;SDS011;36325;51.512;-0.382;2023-03-31T04:26:04;32.33;;;6.00;;
30036;SDS011;36325;51.512;-0.382;2023-03-31T04:28:34;41.38;;;5.68;;
30036;SDS011;36325;51.512;-0.382;2023-03-31T04:31:03;31.08;;;5.50;;
30036;SDS011;36325;51.512;-0.382;2023-03-31T04:33:34;30.40;;;6.05;;
30036;SDS011;36325;51.512;-0.382;2023-03-31T04:36:05;42.47;;;5.32;;
30036;SDS011;36325;51.512;-0.382;2023-03-31T04:38:44;32.15;;;5.97;;
30036;SDS011;36325;51.512;-0.382;2023-03-31T04:41:12;26.27;;;5.18;;
30036;SDS011;36325;51.512;-0.382;2023-03-31T04:43:40;22.20;;;4.82;;
30036;SDS011;36325;51.512;-0.382;2023-03-31T04:46:08;36.63;;;5.35;;
30036;SDS011;36325;51.512;-0.382;2023-03-31T04:48:35;27.92;;;4.82;;
30036;SDS011;36325;51.512;-0.382;2023-03-31T04:51:04;24.17;;;4.05;;
30036;SDS011;36325;51.512;-0.382;2023-03-31T04:53:32;34.92;;;4.55;;
30036;SDS011;36325;51.512;-0.382;2023-03-31T04:55:59;24.25;;;4.90;;
30036;SDS011;36325;51.512;-0.382;2023-03-31T04:58:27;33.47;;;4.38;;
30036;SDS011;36325;51.512;-0.382;2023-03-31T05:00:54;26.60;;;4.22;;
30036;SDS011;36325;51.512;-0.382;2023-03-31T05:03:22;27.42;;;5.05;;
30036;SDS011;36325;51.512;-0.382;2023-03-31T05:05:49;33.03;;;5.32;;
30036;SDS011;36325;51.512;-0.382;2023-03-31T05:08:16;26.42;;;4.97;;
30036;SDS011;36325;51.512;-0.382;2023-03-31T05:10:43;38.72;;;5.72;;
30036;SDS011;36325;51.512;-0.382;2023-03-31T05:13:10;16.35;;;3.72;;
30036;SDS011;36325;51.512;-0.382;2023-03-31T05:15:38;22.80;;;3.95;;
30036;SDS011;36325;51.512;-0.382;2023-03-31T05:18:06;35.67;;;4.30;;
30036;SDS011;36325;51.512;-0.382;2023-03-31T05:20:33;33.85;;;5.28;;
30036;SDS011;36325;51.512;-0.382;2023-03-31T05:23:01;20.98;;;4.07;;
30036;SDS011;36325;51.512;-0.382;2023-03-31T05:25:28;25.08;;;5.03;;
30036;SDS011;36325;51.512;-0.382;2023-03-31T05:27:58;24.15;;;4.03;;
30036;SDS011;36325;51.512;-0.382;2023-03-31T05:30:26;32.22;;;4.63;;
30036;SDS011;36325;51.512;-0.382;2023-03-31T05:32:54;22.48;;;3.63;;
30036;SDS011;36325;51.512;-0.382;2023-03-31T05:35:22;28.65;;;4.78;;
30036;SDS011;36325;51.512;-0.382;2023-03-31T05:37:49;19.17;;;3.95;;
30036;SDS011;36325;51.512;-0.382;2023-03-31T05:40:17;26.42;;;4.60;;
30036;SDS011;36325;51.512;-0.382;2023-03-31T05:42:45;22.42;;;4.00;;
30036;SDS011;36325;51.512;-0.382;2023-03-31T05:45:12;23.25;;;3.90;;
30036;SDS011;36325;51.512;-0.382;2023-03-31T05:47:39;27.88;;;4.80;;
30036;SDS011;36325;51.512;-0.382;2023-03-31T05:50:06;30.77;;;3.35;;
30036;SDS011;36325;51.512;-0.382;2023-03-31T05:52:34;27.35;;;3.03;;
30036;SDS011;36325;51.512;-0.382;2023-03-31T05:55:03;20.40;;;3.65;;
30036;SDS011;36325;51.512;-0.382;2023-03-31T05:57:30;25.00;;;3.88;;
30036;SDS011;36325;51.512;-0.382;2023-03-31T05:59:58;25.70;;;3.65;;
30036;SDS011;36325;51.512;-0.382;2023-03-31T06:02:25;13.68;;;2.15;;
30036;SDS011;36325;51.512;-0.382;2023-03-31T06:04:52;22.13;;;3.60;;
30036;SDS011;36325;51.512;-0.382;2023-03-31T06:07:20;17.58;;;2.92;;
30036;SDS011;36325;51.512;-0.382;2023-03-31T06:09:50;16.15;;;3.70;;
30036;SDS011;36325;51.512;-0.382;2023-03-31T06:12:17;22.92;;;2.97;;
30036;SDS011;36325;51.512;-0.382;2023-03-31T06:14:44;20.30;;;3.03;;
30036;SDS011;36325;51.512;-0.382;2023-03-31T06:17:12;16.00;;;2.58;;
30036;SDS011;36325;51.512;-0.382;2023-03-31T06:19:39;20.70;;;3.10;;
30036;SDS011;36325;51.512;-0.382;2023-03-31T06:22:06;13.73;;;3.40;;
30036;SDS011;36325;51.512;-0.382;2023-03-31T06:24:33;22.38;;;2.85;;
30036;SDS011;36325;51.512;-0.382;2023-03-31T06:27:00;12.90;;;3.22;;
30036;SDS011;36325;51.512;-0.382;2023-03-31T06:29:29;16.60;;;2.78;;
30036;SDS011;36325;51.512;-0.382;2023-03-31T06:31:56;13.13;;;2.72;;
30036;SDS011;36325;51.512;-0.382;2023-03-31T06:34:24;18.15;;;3.33;;
30036;SDS011;36325;51.512;-0.382;2023-03-31T06:36:51;28.10;;;3.80;;
30036;SDS011;36325;51.512;-0.382;2023-03-31T06:39:18;24.70;;;3.70;;
30036;SDS011;36325;51.512;-0.382;2023-03-31T06:41:46;30.17;;;5.07;;
30036;SDS011;36325;51.512;-0.382;2023-03-31T06:44:23;21.08;;;3.72;;
30036;SDS011;36325;51.512;-0.382;2023-03-31T06:46:50;18.55;;;5.03;;
30036;SDS011;36325;51.512;-0.382;2023-03-31T06:49:18;23.05;;;3.30;;
30036;SDS011;36325;51.512;-0.382;2023-03-31T06:51:45;21.10;;;3.80;;
30036;SDS011;36325;51.512;-0.382;2023-03-31T06:54:12;30.80;;;5.47;;
30036;SDS011;36325;51.512;-0.382;2023-03-31T06:56:40;27.38;;;4.07;;
30036;SDS011;36325;51.512;-0.382;2023-03-31T06:59:08;34.97;;;5.63;;
30036;SDS011;36325;51.512;-0.382;2023-03-31T07:01:35;34.90;;;5.50;;
30036;SDS011;36325;51.512;-0.382;2023-03-31T07:04:05;34.78;;;5.53;;
30036;SDS011;36325;51.512;-0.382;2023-03-31T07:06:35;29.77;;;4.95;;
30036;SDS011;36325;51.512;-0.382;2023-03-31T07:09:02;35.22;;;4.63;;
30036;SDS011;36325;51.512;-0.382;2023-03-31T07:11:30;34.88;;;4.25;;
30036;SDS011;36325;51.512;-0.382;2023-03-31T07:13:57;40.83;;;4.75;;
30036;SDS011;36325;51.512;-0.382;2023-03-31T07:16:24;28.00;;;4.68;;
30036;SDS011;36325;51.512;-0.382;2023-03-31T07:18:51;35.40;;;4.97;;
30036;SDS011;36325;51.512;-0.382;2023-03-31T07:21:20;30.75;;;5.28;;
30036;SDS011;36325;51.512;-0.382;2023-03-31T07:23:49;40.90;;;6.95;;
30036;SDS011;36325;51.512;-0.382;2023-03-31T07:26:16;36.30;;;6.28;;
30036;SDS011;36325;51.512;-0.382;2023-03-31T07:28:43;45.65;;;6.35;;
30036;SDS011;36325;51.512;-0.382;2023-03-31T07:31:11;36.60;;;5.28;;
30036;SDS011;36325;51.512;-0.382;2023-03-31T07:33:39;29.20;;;4.45;;
30036;SDS011;36325;51.512;-0.382;2023-03-31T07:36:07;27.25;;;4.43;;
30036;SDS011;36325;51.512;-0.382;2023-03-31T07:38:39;34.92;;;5.80;;
30036;SDS011;36325;51.512;-0.382;2023-03-31T07:41:14;31.40;;;4.82;;
30036;SDS011;36325;51.512;-0.382;2023-03-31T07:43:44;39.78;;;5.63;;
30036;SDS011;36325;51.512;-0.382;2023-03-31T07:46:13;32.83;;;4.70;;
30036;SDS011;36325;51.512;-0.382;2023-03-31T07:48:42;33.10;;;6.35;;
30036;SDS011;36325;51.512;-0.382;2023-03-31T07:51:15;35.10;;;5.20;;
30036;SDS011;36325;51.512;-0.382;2023-03-31T07:53:45;33.55;;;5.78;;
30036;SDS011;36325;51.512;-0.382;2023-03-31T07:56:14;27.55;;;5.32;;
30036;SDS011;36325;51.512;-0.382;2023-03-31T07:58:43;29.90;;;5.07;;
30036;SDS011;36325;51.512;-0.382;2023-03-31T08:01:13;45.90;;;6.95;;
30036;SDS011;36325;51.512;-0.382;2023-03-31T08:03:43;46.22;;;6.50;;
30036;SDS011;36325;51.512;-0.382;2023-03-31T08:06:16;38.40;;;6.22;;
30036;SDS011;36325;51.512;-0.382;2023-03-31T08:08:45;33.83;;;5.78;;
30036;SDS011;36325;51.512;-0.382;2023-03-31T08:11:12;30.17;;;5.00;;
30036;SDS011;36325;51.512;-0.382;2023-03-31T08:13:39;40.97;;;6.85;;
30036;SDS011;36325;51.512;-0.382;2023-03-31T08:16:07;48.30;;;7.00;;
30036;SDS011;36325;51.512;-0.382;2023-03-31T08:18:34;34.53;;;6.72;;
30036;SDS011;36325;51.512;-0.382;2023-03-31T08:21:02;41.75;;;6.60;;
30036;SDS011;36325;51.512;-0.382;2023-03-31T08:23:29;32.72;;;5.63;;
30036;SDS011;36325;51.512;-0.382;2023-03-31T08:28:36;28.85;;;6.18;;
30036;SDS011;36325;51.512;-0.382;2023-03-31T08:31:06;26.98;;;5.20;;
30036;SDS011;36325;51.512;-0.382;2023-03-31T08:33:36;33.70;;;4.85;;
30036;SDS011;36325;51.512;-0.382;2023-03-31T08:36:04;36.42;;;6.65;;
30036;SDS011;36325;51.512;-0.382;2023-03-31T08:38:35;33.90;;;5.57;;
30036;SDS011;36325;51.512;-0.382;2023-03-31T08:43:57;44.78;;;6.40;;
30036;SDS011;36325;51.512;-0.382;2023-03-31T08:46:27;28.15;;;4.90;;
30036;SDS011;36325;51.512;-0.382;2023-03-31T08:48:58;30.88;;;4.80;;
30036;SDS011;36325;51.512;-0.382;2023-03-31T08:51:27;27.27;;;3.85;;
30036;SDS011;36325;51.512;-0.382;2023-03-31T08:54:03;25.20;;;4.10;;
30036;SDS011;36325;51.512;-0.382;2023-03-31T08:56:40;23.00;;;4.93;;
30036;SDS011;36325;51.512;-0.382;2023-03-31T08:59:16;31.45;;;5.65;;
30036;SDS011;36325;51.512;-0.382;2023-03-31T09:01:55;30.25;;;7.15;;
30036;SDS011;36325;51.512;-0.382;2023-03-31T09:18:18;39.03;;;5.13;;
30036;SDS011;36325;51.512;-0.382;2023-03-31T09:20:50;46.97;;;5.65;;
30036;SDS011;36325;51.512;-0.382;2023-03-31T09:25:55;27.08;;;4.55;;
30036;SDS011;36325;51.512;-0.382;2023-03-31T09:28:27;28.15;;;4.35;;
30036;SDS011;36325;51.512;-0.382;2023-03-31T09:31:06;31.55;;;5.43;;
30036;SDS011;36325;51.512;-0.382;2023-03-31T09:33:45;32.67;;;4.55;;
30036;SDS011;36325;51.512;-0.382;2023-03-31T09:36:14;18.52;;;3.85;;
30036;SDS011;36325;51.512;-0.382;2023-03-31T09:38:44;31.17;;;4.03;;
30036;SDS011;36325;51.512;-0.382;2023-03-31T09:41:13;28.45;;;4.05;;
30036;SDS011;36325;51.512;-0.382;2023-03-31T09:43:42;13.55;;;2.17;;
30036;SDS011;36325;51.512;-0.382;2023-03-31T09:46:25;13.40;;;3.25;;
30036;SDS011;36325;51.512;-0.382;2023-03-31T09:49:01;21.05;;;3.90;;
30036;SDS011;36325;51.512;-0.382;2023-03-31T09:54:18;19.30;;;3.17;;
30036;SDS011;36325;51.512;-0.382;2023-03-31T09:56:50;12.57;;;2.33;;
30036;SDS011;36325;51.512;-0.382;2023-03-31T09:59:22;7.63;;;1.83;;
30036;SDS011;36325;51.512;-0.382;2023-03-31T10:02:16;4.85;;;1.67;;
30036;SDS011;36325;51.512;-0.382;2023-03-31T10:04:53;9.23;;;1.30;;
30036;SDS011;36325;51.512;-0.382;2023-03-31T10:07:20;5.38;;;1.17;;
30036;SDS011;36325;51.512;-0.382;2023-03-31T10:09:50;14.63;;;2.03;;
30036;SDS011;36325;51.512;-0.382;2023-03-31T10:12:20;6.80;;;1.60;;
30036;SDS011;36325;51.512;-0.382;2023-03-31T10:14:51;12.15;;;1.95;;
30036;SDS011;36325;51.512;-0.382;2023-03-31T10:17:21;5.85;;;1.67;;
30036;SDS011;36325;51.512;-0.382;2023-03-31T10:19:51;40.00;;;4.38;;
30036;SDS011;36325;51.512;-0.382;2023-03-31T10:22:30;8.52;;;2.30;;
30036;SDS011;36325;51.512;-0.382;2023-03-31T10:25:09;14.45;;;2.50;;
30036;SDS011;36325;51.512;-0.382;2023-03-31T10:27:47;17.33;;;2.83;;
30036;SDS011;36325;51.512;-0.382;2023-03-31T10:30:22;16.70;;;2.53;;
30036;SDS011;36325;51.512;-0.382;2023-03-31T10:32:51;5.90;;;1.48;;
30036;SDS011;36325;51.512;-0.382;2023-03-31T10:35:21;4.18;;;1.45;;
30036;SDS011;36325;51.512;-0.382;2023-03-31T10:37:57;17.60;;;2.33;;
30036;SDS011;36325;51.512;-0.382;2023-03-31T10:40:30;6.38;;;1.10;;
30036;SDS011;36325;51.512;-0.382;2023-03-31T10:43:16;8.38;;;1.23;;
30036;SDS011;36325;51.512;-0.382;2023-03-31T10:45:47;2.72;;;0.80;;
30036;SDS011;36325;51.512;-0.382;2023-03-31T10:48:36;3.05;;;1.20;;
30036;SDS011;36325;51.512;-0.382;2023-03-31T10:51:16;1.80;;;0.82;;
30036;SDS011;36325;51.512;-0.382;2023-03-31T11:27:18;1.15;;;0.60;;
30036;SDS011;36325;51.512;-0.382;2023-03-31T11:30:19;1.67;;;0.77;;
30036;SDS011;36325;51.512;-0.382;2023-03-31T11:36:02;3.05;;;0.93;;
30036;SDS011;36325;51.512;-0.382;2023-03-31T11:41:42;6.20;;;1.50;;
30036;SDS011;36325;51.512;-0.382;2023-03-31T11:44:19;3.55;;;1.23;;
30036;SDS011;36325;51.512;-0.382;2023-03-31T11:46:56;3.22;;;1.23;;
30036;SDS011;36325;51.512;-0.382;2023-03-31T11:52:08;3.80;;;1.70;;
30036;SDS011;36325;51.512;-0.382;2023-03-31T11:54:53;6.50;;;1.67;;
30036;SDS011;36325;51.512;-0.382;2023-03-31T12:05:43;2.95;;;0.85;;
30036;SDS011;36325;51.512;-0.382;2023-03-31T12:08:15;1.52;;;0.60;;
30036;SDS011;36325;51.512;-0.382;2023-03-31T12:11:03;1.45;;;0.93;;
30036;SDS011;36325;51.512;-0.382;2023-03-31T12:13:57;4.28;;;1.42;;
30036;SDS011;36325;51.512;-0.382;2023-03-31T12:16:47;1.80;;;1.00;;
30036;SDS011;36325;51.512;-0.382;2023-03-31T12:19:24;3.00;;;0.90;;
30036;SDS011;36325;51.512;-0.382;2023-03-31T12:21:57;1.92;;;0.82;;
30036;SDS011;36325;51.512;-0.382;2023-03-31T12:24:33;3.70;;;0.93;;
30036;SDS011;36325;51.512;-0.382;2023-03-31T12:30:03;2.55;;;0.68;;
30036;SDS011;36325;51.512;-0.382;2023-03-31T12:32:46;1.35;;;0.80;;
30036;SDS011;36325;51.512;-0.382;2023-03-31T12:35:23;3.10;;;0.98;;
30036;SDS011;36325;51.512;-0.382;2023-03-31T12:54:02;10.30;;;2.13;;
30036;SDS011;36325;51.512;-0.382;2023-03-31T12:59:36;4.72;;;0.90;;
30036;SDS011;36325;51.512;-0.382;2023-03-31T13:04:35;5.60;;;0.93;;
30036;SDS011;36325;51.512;-0.382;2023-03-31T13:07:03;7.25;;;1.38;;
30036;SDS011;36325;51.512;-0.382;2023-03-31T13:09:56;5.95;;;0.98;;
30036;SDS011;36325;51.512;-0.382;2023-03-31T13:13:00;1.08;;;0.65;;
30036;SDS011;36325;51.512;-0.382;2023-03-31T13:15:30;1.73;;;0.82;;
30036;SDS011;36325;51.512;-0.382;2023-03-31T13:17:59;2.58;;;0.80;;
30036;SDS011;36325;51.512;-0.382;2023-03-31T13:25:46;3.35;;;1.40;;
30036;SDS011;36325;51.512;-0.382;2023-03-31T13:28:25;3.63;;;1.60;;
30036;SDS011;36325;51.512;-0.382;2023-03-31T13:31:19;2.63;;;1.23;;
30036;SDS011;36325;51.512;-0.382;2023-03-31T13:33:50;4.28;;;1.50;;
30036;SDS011;36325;51.512;-0.382;2023-03-31T13:50:28;4.88;;;0.73;;
30036;SDS011;36325;51.512;-0.382;2023-03-31T13:56:25;2.60;;;1.25;;
30036;SDS011;36325;51.512;-0.382;2023-03-31T13:59:31;1.30;;;0.88;;
30036;SDS011;36325;51.512;-0.382;2023-03-31T14:04:54;2.67;;;0.80;;
30036;SDS011;36325;51.512;-0.382;2023-03-31T14:07:44;3.65;;;0.63;;
30036;SDS011;36325;51.512;-0.382;2023-03-31T14:10:31;3.13;;;0.95;;
30036;SDS011;36325;51.512;-0.382;2023-03-31T14:13:05;2.78;;;0.88;;
30036;SDS011;36325;51.512;-0.382;2023-03-31T14:15:50;5.10;;;1.17;;
30036;SDS011;36325;51.512;-0.382;2023-03-31T14:18:30;3.97;;;1.58;;
30036;SDS011;36325;51.512;-0.382;2023-03-31T14:21:04;3.63;;;1.45;;
30036;SDS011;36325;51.512;-0.382;2023-03-31T14:29:43;8.18;;;1.45;;
30036;SDS011;36325;51.512;-0.382;2023-03-31T14:32:27;3.70;;;1.00;;
30036;SDS011;36325;51.512;-0.382;2023-03-31T14:37:52;3.10;;;1.27;;
30036;SDS011;36325;51.512;-0.382;2023-03-31T14:40:20;6.53;;;1.10;;
30036;SDS011;36325;51.512;-0.382;2023-03-31T14:42:50;4.57;;;1.23;;
30036;SDS011;36325;51.512;-0.382;2023-03-31T14:45:19;3.83;;;1.45;;
30036;SDS011;36325;51.512;-0.382;2023-03-31T14:47:54;3.53;;;1.67;;
30036;SDS011;36325;51.512;-0.382;2023-03-31T14:50:27;4.13;;;1.52;;
30036;SDS011;36325;51.512;-0.382;2023-03-31T14:52:57;2.63;;;0.90;;
30036;SDS011;36325;51.512;-0.382;2023-03-31T14:55:26;2.72;;;1.10;;
30036;SDS011;36325;51.512;-0.382;2023-03-31T14:58:10;1.70;;;1.10;;
30036;SDS011;36325;51.512;-0.382;2023-03-31T15:00:41;3.08;;;0.82;;
30036;SDS011;36325;51.512;-0.382;2023-03-31T15:03:11;2.10;;;1.05;;
30036;SDS011;36325;51.512;-0.382;2023-03-31T15:05:40;3.97;;;0.75;;
30036;SDS011;36325;51.512;-0.382;2023-03-31T15:08:15;3.35;;;0.82;;
30036;SDS011;36325;51.512;-0.382;2023-03-31T15:10:47;0.70;;;0.50;;
30036;SDS011;36325;51.512;-0.382;2023-03-31T15:13:29;3.60;;;0.40;;
30036;SDS011;36325;51.512;-0.382;2023-03-31T15:15:59;1.00;;;0.50;;
30036;SDS011;36325;51.512;-0.382;2023-03-31T15:18:46;2.85;;;0.55;;
30036;SDS011;36325;51.512;-0.382;2023-03-31T15:21:23;0.55;;;0.30;;
30036;SDS011;36325;51.512;-0.382;2023-03-31T15:23:56;4.80;;;0.70;;
30036;SDS011;36325;51.512;-0.382;2023-03-31T15:26:25;4.32;;;2.50;;
30036;SDS011;36325;51.512;-0.382;2023-03-31T15:31:43;1.20;;;0.50;;
30036;SDS011;36325;51.512;-0.382;2023-03-31T15:34:11;1.83;;;0.40;;
30036;SDS011;36325;51.512;-0.382;2023-03-31T15:36:47;0.80;;;0.28;;
30036;SDS011;36325;51.512;-0.382;2023-03-31T15:39:14;0.50;;;0.22;;
30036;SDS011;36325;51.512;-0.382;2023-03-31T15:41:42;2.20;;;0.80;;
30036;SDS011;36325;51.512;-0.382;2023-03-31T15:47:18;0.30;;;0.30;;
30036;SDS011;36325;51.512;-0.382;2023-03-31T15:49:54;0.60;;;0.40;;
30036;SDS011;36325;51.512;-0.382;2023-03-31T15:52:34;0.95;;;0.32;;
30036;SDS011;36325;51.512;-0.382;2023-03-31T15:57:52;1.90;;;0.50;;
30036;SDS011;36325;51.512;-0.382;2023-03-31T16:03:19;2.67;;;0.70;;
30036;SDS011;36325;51.512;-0.382;2023-03-31T16:05:57;0.90;;;0.30;;
30036;SDS011;36325;51.512;-0.382;2023-03-31T16:08:34;2.40;;;0.90;;
30036;SDS011;36325;51.512;-0.382;2023-03-31T16:14:35;4.15;;;1.23;;
30036;SDS011;36325;51.512;-0.382;2023-03-31T16:17:04;1.15;;;0.40;;
30036;SDS011;36325;51.512;-0.382;2023-03-31T16:19:44;0.82;;;0.52;;
30036;SDS011;36325;51.512;-0.382;2023-03-31T16:22:17;1.40;;;0.43;;
30036;SDS011;36325;51.512;-0.382;2023-03-31T16:24:48;0.68;;;0.40;;
30036;SDS011;36325;51.512;-0.382;2023-03-31T16:27:16;1.10;;;0.60;;
30036;SDS011;36325;51.512;-0.382;2023-03-31T16:29:44;7.78;;;1.05;;
30036;SDS011;36325;51.512;-0.382;2023-03-31T16:32:13;1.65;;;0.50;;
30036;SDS011;36325;51.512;-0.382;2023-03-31T16:37:26;1.63;;;0.35;;
30036;SDS011;36325;51.512;-0.382;2023-03-31T16:39:54;1.55;;;0.47;;
30036;SDS011;36325;51.512;-0.382;2023-03-31T16:42:22;1.38;;;0.82;;
30036;SDS011;36325;51.512;-0.382;2023-03-31T16:44:50;1.58;;;0.60;;
30036;SDS011;36325;51.512;-0.382;2023-03-31T16:47:35;1.50;;;0.50;;
30036;SDS011;36325;51.512;-0.382;2023-03-31T16:50:02;3.22;;;0.60;;
30036;SDS011;36325;51.512;-0.382;2023-03-31T16:52:33;2.88;;;0.50;;
30036;SDS011;36325;51.512;-0.382;2023-03-31T16:55:01;1.95;;;0.70;;
30036;SDS011;36325;51.512;-0.382;2023-03-31T16:57:29;2.80;;;0.60;;
30036;SDS011;36325;51.512;-0.382;2023-03-31T16:59:57;1.08;;;0.70;;
30036;SDS011;36325;51.512;-0.382;2023-03-31T17:02:25;1.15;;;0.68;;
30036;SDS011;36325;51.512;-0.382;2023-03-31T17:04:52;0.93;;;0.50;;
30036;SDS011;36325;51.512;-0.382;2023-03-31T17:07:22;2.35;;;0.60;;
30036;SDS011;36325;51.512;-0.382;2023-03-31T17:09:49;0.95;;;0.50;;
30036;SDS011;36325;51.512;-0.382;2023-03-31T17:12:17;3.08;;;1.08;;
30036;SDS011;36325;51.512;-0.382;2023-03-31T17:14:45;7.30;;;1.10;;
30036;SDS011;36325;51.512;-0.382;2023-03-31T17:17:12;2.28;;;0.77;;
30036;SDS011;36325;51.512;-0.382;2023-03-31T17:19:42;3.13;;;1.35;;
30036;SDS011;36325;51.512;-0.382;2023-03-31T17:22:09;5.68;;;1.10;;
30036;SDS011;36325;51.512;-0.382;2023-03-31T17:24:37;2.78;;;1.00;;
30036;SDS011;36325;51.512;-0.382;2023-03-31T17:27:04;3.60;;;1.10;;
30036;SDS011;36325;51.512;-0.382;2023-03-31T17:29:31;1.67;;;0.80;;
30036;SDS011;36325;51.512;-0.382;2023-03-31T17:31:59;3.58;;;0.88;;
30036;SDS011;36325;51.512;-0.382;2023-03-31T17:34:26;4.30;;;0.73;;
30036;SDS011;36325;51.512;-0.382;2023-03-31T17:36:54;2.70;;;1.10;;
30036;SDS011;36325;51.512;-0.382;2023-03-31T17:39:22;3.22;;;0.95;;
30036;SDS011;36325;51.512;-0.382;2023-03-31T17:41:50;3.88;;;1.08;;
30036;SDS011;36325;51.512;-0.382;2023-03-31T17:44:17;2.63;;;1.23;;
30036;SDS011;36325;51.512;-0.382;2023-03-31T17:46:44;3.05;;;1.05;;
30036;SDS011;36325;51.512;-0.382;2023-03-31T17:49:13;5.28;;;1.30;;
30036;SDS011;36325;51.512;-0.382;2023-03-31T17:51:41;4.68;;;1.42;;
30036;SDS011;36325;51.512;-0.382;2023-03-31T17:54:09;3.95;;;1.40;;
30036;SDS011;36325;51.512;-0.382;2023-03-31T17:56:37;3.83;;;1.30;;
30036;SDS011;36325;51.512;-0.382;2023-03-31T17:59:04;4.82;;;1.15;;
30036;SDS011;36325;51.512;-0.382;2023-03-31T18:01:31;3.58;;;1.60;;
30036;SDS011;36325;51.512;-0.382;2023-03-31T18:03:59;5.78;;;2.08;;
30036;SDS011;36325;51.512;-0.382;2023-03-31T18:06:27;5.50;;;1.83;;